Αρχική σελίδα
METAR-TAF:

METAR-TAF

Αεροδρόμια :

Machala, Ισημερινός

γεωγραφικό πλάτος: 03-26-07S, γεωγραφικό μήκος: 079-58-40W, υψόμετρο: 52 μ

Παρών καιρός

Η αναφορά έγινε 46 λεπτά πριν, στις 20:00 UTC
Άνεμος 7 kt από
Θερμοκρασία 24°C
Υγρασία 83%
Πίεση 1011 hPa
Ορατότητα 10 χλμ και άνω
Διάσπαρτα νέφη σε ύψος 1000 πόδια
Νεφοσκεπής σε ύψος 2600 πόδια

METAR: SERO 192000Z 31007KT 9999 SCT010 OVC026 24/21 Q1011

Χρόνος: 15:46 (20:46 UTC)


TAF: λείπει

Μετεωρολογικές αναφορές και προγνώσεις για περισσότερα από 4000 αεροδρόμια (δελτία METAR και TAF).

Οι διαθέσιμοι σταθμοί απεικονίζονται στο χάρτη με κίτρινες και κόκκινες κουκκίδες.

Μετακινήστε το ποντίκι πάνω από τις κουκκίδες για να δείτε το όνομα του σταθμού.

Στη συνέχεια, κάντε κλικ για να δείτε τις μετεωρολογικές αναφορές και τις προγνώσεις καιρού.

Για να αλλάξετε το χάρτη: κάντε κλικ στα πράσινα κουμπιά με τον μαύρο σταυρό για να ζουμάρετε, στο πράσινο κουμπί με την παύλα για να αφαιρέσετε το ζουμ ή στα πράσινα βέλη για να αντιπαραβάλλετε χάρτες.


METAR-TAF: